Time;durP1;ratioP1;P1;durP2;ratioP2;P2;SDS_P1;SDS_P2;PMS_P1;PMS_P2;Temp;Humidity;BMP_temperature;BMP_pressure;BME280_temperature;BME280_humidity;BME280_pressure;Samples;Min_cycle;Max_cycle;Signal;HPM_P1;HPM_P2
2023/03/17 00:01:50;;;;;;;5.57;3.70;;;;;;;;;;5032766;28;20045;-57
2023/03/17 00:04:44;;;;;;;9.13;4.63;;;;;;;;;;5013803;28;20165;-57
2023/03/17 00:07:37;;;;;;;6.72;3.85;;;;;;;;;;5032018;28;20029;-57
2023/03/17 00:10:41;;;;;;;6.38;3.70;;;;;;;;;;5033951;28;20524;-56
2023/03/17 00:13:26;;;;;;;7.68;4.57;;;;;;;;;;5051312;28;20048;-57
2023/03/17 00:16:14;;;;;;;6.75;3.97;;;;;;;;;;5052287;28;20040;-57
2023/03/17 00:19:17;;;;;;;5.75;3.30;;;;;;;;;;5015270;28;20539;-56
2023/03/17 00:22:01;;;;;;;6.50;3.03;;;;;;;;;;5050911;28;20045;-56
2023/03/17 00:24:45;;;;;;;4.53;3.40;;;;;;;;;;5053100;28;20091;-57
2023/03/17 00:27:39;;;;;;;5.53;3.42;;;;;;;;;;5029391;28;20053;-56
2023/03/17 00:30:14;;;;;;;7.60;4.35;;;;;;;;;;5052764;28;20049;-58
2023/03/17 00:33:11;;;;;;;6.72;3.30;;;;;;;;;;5050637;28;20039;-57
2023/03/17 00:35:46;;;;;;;6.82;3.83;;;;;;;;;;5050951;28;20076;-57
2023/03/17 00:38:39;;;;;;;6.38;4.05;;;;;;;;;;5043475;28;20644;-57
2023/03/17 00:41:23;;;;;;;6.10;3.65;;;;;;;;;;5042226;28;20894;-57
2023/03/17 00:44:28;;;;;;;6.50;3.58;;;;;;;;;;5049646;28;20103;-57
2023/03/17 00:47:02;;;;;;;5.20;3.65;;;;;;;;;;4976461;28;20055;-56
2023/03/17 00:49:56;;;;;;;6.13;3.03;;;;;;;;;;4961643;28;20051;-57
2023/03/17 00:55:25;;;;;;;7.05;3.42;;;;;;;;;;4980256;28;20057;-57
2023/03/17 01:04:25;;;;;;;9.32;3.72;;;;;;;;;;4941927;28;20361;-57
2023/03/17 01:10:03;;;;;;;5.35;3.80;;;;;;;;;;4939771;28;20757;-56
2023/03/17 01:15:32;;;;;;;6.63;3.67;;;;;;;;;;4944788;28;20066;-57
2023/03/17 01:18:08;;;;;;;5.68;3.20;;;;;;;;;;4986183;28;20047;-57
2023/03/17 01:21:06;;;;;;;5.55;3.75;;;;;;;;;;4942424;28;20433;-57
2023/03/17 01:24:03;;;;;;;5.07;3.30;;;;;;;;;;5049563;28;20041;-56
2023/03/17 01:26:57;;;;;;;7.20;4.00;;;;;;;;;;5047812;28;20268;-57
2023/03/17 01:29:41;;;;;;;5.43;3.28;;;;;;;;;;5046231;28;20641;-57
2023/03/17 01:32:35;;;;;;;5.60;3.15;;;;;;;;;;5047293;28;20553;-56
2023/03/17 01:35:19;;;;;;;8.63;4.63;;;;;;;;;;5050785;28;20049;-57
2023/03/17 01:38:03;;;;;;;6.05;3.55;;;;;;;;;;5052179;28;20045;-57
2023/03/17 01:41:06;;;;;;;6.68;3.40;;;;;;;;;;5029901;28;20041;-57
2023/03/17 01:43:32;;;;;;;8.93;3.40;;;;;;;;;;5049308;28;20041;-57
2023/03/17 01:49:34;;;;;;;8.32;3.85;;;;;;;;;;5049556;28;20128;-57
2023/03/17 01:52:38;;;;;;;5.68;3.15;;;;;;;;;;5044817;28;20049;-56
2023/03/17 01:55:52;;;;;;;7.85;3.88;;;;;;;;;;5049825;28;20143;-57
2023/03/17 01:58:35;;;;;;;5.90;3.95;;;;;;;;;;4966330;28;20062;-57
2023/03/17 02:07:57;;;;;;;5.82;3.78;;;;;;;;;;4899490;29;20048;-57
2023/03/17 02:10:42;;;;;;;6.75;3.15;;;;;;;;;;4905006;29;20095;-57
2023/03/17 02:13:25;;;;;;;4.15;3.20;;;;;;;;;;4900956;29;20104;-56
2023/03/17 02:16:10;;;;;;;7.10;3.92;;;;;;;;;;4902492;29;20068;-56
2023/03/17 02:18:54;;;;;;;6.85;3.55;;;;;;;;;;4901326;29;20133;-56
2023/03/17 02:22:08;;;;;;;7.68;3.40;;;;;;;;;;4883811;29;20140;-57
2023/03/17 02:25:12;;;;;;;4.78;3.00;;;;;;;;;;4843966;29;20550;-57
2023/03/17 02:27:41;;;;;;;4.85;3.63;;;;;;;;;;4838495;29;20111;-57
2023/03/17 02:30:08;;;;;;;6.97;4.30;;;;;;;;;;4954187;28;20050;-57
2023/03/17 02:32:38;;;;;;;6.70;4.00;;;;;;;;;;5038713;28;20041;-57
2023/03/17 02:35:06;;;;;;;4.68;3.00;;;;;;;;;;5040166;28;20812;-56
2023/03/17 02:37:32;;;;;;;4.65;3.38;;;;;;;;;;5038895;28;20430;-57
2023/03/17 02:40:00;;;;;;;5.20;3.38;;;;;;;;;;5038548;28;20041;-56
2023/03/17 02:42:26;;;;;;;5.47;3.42;;;;;;;;;;5039173;28;20668;-57
2023/03/17 02:44:53;;;;;;;5.65;3.80;;;;;;;;;;5044199;28;20092;-57
2023/03/17 02:47:19;;;;;;;5.38;3.85;;;;;;;;;;5040454;28;20160;-57
2023/03/17 02:49:45;;;;;;;8.13;4.90;;;;;;;;;;5039219;28;20426;-57
2023/03/17 02:52:12;;;;;;;7.60;4.13;;;;;;;;;;5034949;28;20053;-57
2023/03/17 02:54:38;;;;;;;4.55;3.42;;;;;;;;;;5038864;28;20165;-57
2023/03/17 02:57:05;;;;;;;5.78;3.95;;;;;;;;;;5037960;28;20057;-59
2023/03/17 02:59:31;;;;;;;8.23;3.97;;;;;;;;;;5038218;28;20981;-56
2023/03/17 03:01:57;;;;;;;7.18;3.80;;;;;;;;;;5039439;28;20281;-57
2023/03/17 03:04:23;;;;;;;7.18;3.78;;;;;;;;;;5035956;28;20734;-56
2023/03/17 03:06:49;;;;;;;6.05;3.22;;;;;;;;;;5038058;28;20041;-57
2023/03/17 03:09:16;;;;;;;5.35;3.40;;;;;;;;;;5040087;28;20126;-56
2023/03/17 03:11:43;;;;;;;7.40;4.00;;;;;;;;;;5047843;28;20861;-57
2023/03/17 03:14:09;;;;;;;5.18;3.40;;;;;;;;;;5058766;28;20564;-57
2023/03/17 03:16:36;;;;;;;6.35;3.75;;;;;;;;;;5057389;28;20055;-57
2023/03/17 03:19:02;;;;;;;5.13;3.78;;;;;;;;;;5041769;28;20032;-57
2023/03/17 03:21:28;;;;;;;7.95;3.55;;;;;;;;;;5060334;28;20608;-57
2023/03/17 03:23:54;;;;;;;7.57;4.13;;;;;;;;;;5057742;28;20052;-57
2023/03/17 03:26:21;;;;;;;7.35;4.00;;;;;;;;;;5057189;28;20078;-57
2023/03/17 03:28:47;;;;;;;7.88;4.35;;;;;;;;;;5057154;28;20051;-57
2023/03/17 03:31:13;;;;;;;10.25;3.97;;;;;;;;;;5059067;28;20048;-57
2023/03/17 03:33:40;;;;;;;4.72;3.13;;;;;;;;;;5057653;28;20122;-57
2023/03/17 03:36:07;;;;;;;5.43;3.67;;;;;;;;;;5037637;28;20048;-57
2023/03/17 03:38:33;;;;;;;6.03;3.63;;;;;;;;;;5057162;28;20036;-57
2023/03/17 03:40:59;;;;;;;5.63;3.60;;;;;;;;;;5059815;28;20043;-57
2023/03/17 03:43:25;;;;;;;8.90;4.07;;;;;;;;;;5058489;28;20040;-57
2023/03/17 03:45:53;;;;;;;5.15;3.30;;;;;;;;;;5040032;28;20850;-58
2023/03/17 03:48:19;;;;;;;6.00;3.67;;;;;;;;;;5059421;28;20100;-57
2023/03/17 03:50:46;;;;;;;6.78;2.85;;;;;;;;;;5059522;28;20044;-57
2023/03/17 03:53:12;;;;;;;5.53;4.40;;;;;;;;;;5057552;28;20059;-57
2023/03/17 03:55:38;;;;;;;7.30;4.45;;;;;;;;;;5056703;28;20549;-56
2023/03/17 03:58:05;;;;;;;7.40;3.53;;;;;;;;;;5058166;28;20044;-57
2023/03/17 04:00:31;;;;;;;6.55;3.33;;;;;;;;;;5058351;28;20179;-57
2023/03/17 04:02:57;;;;;;;4.60;2.90;;;;;;;;;;5059801;28;20036;-57
2023/03/17 04:05:24;;;;;;;7.95;3.67;;;;;;;;;;5059597;28;20041;-60
2023/03/17 04:07:50;;;;;;;6.97;4.15;;;;;;;;;;5060772;28;20051;-57
2023/03/17 04:10:16;;;;;;;7.32;4.13;;;;;;;;;;5072083;28;20603;-57
2023/03/17 04:12:43;;;;;;;5.05;3.53;;;;;;;;;;5072416;28;20448;-56
2023/03/17 04:15:10;;;;;;;6.30;3.53;;;;;;;;;;5072632;28;20240;-58
2023/03/17 04:17:37;;;;;;;4.63;3.00;;;;;;;;;;5072490;28;20040;-56
2023/03/17 04:20:03;;;;;;;7.53;3.85;;;;;;;;;;5070676;28;20051;-56
2023/03/17 04:22:29;;;;;;;6.60;3.95;;;;;;;;;;5051323;28;20119;-57
2023/03/17 04:24:55;;;;;;;5.80;3.47;;;;;;;;;;5066047;28;20610;-57
2023/03/17 04:27:21;;;;;;;6.05;3.70;;;;;;;;;;5066547;28;20040;-57
2023/03/17 04:29:48;;;;;;;6.22;3.50;;;;;;;;;;5052308;28;20044;-57
2023/03/17 04:32:14;;;;;;;5.75;3.80;;;;;;;;;;5055359;28;20521;-57
2023/03/17 04:34:41;;;;;;;5.10;2.85;;;;;;;;;;5066776;28;20506;-57
2023/03/17 04:37:08;;;;;;;6.53;3.90;;;;;;;;;;5047130;28;20044;-57
2023/03/17 04:39:35;;;;;;;5.10;3.42;;;;;;;;;;5050197;28;20120;-57
2023/03/17 04:42:01;;;;;;;7.68;3.00;;;;;;;;;;5071445;28;20053;-56
2023/03/17 04:44:27;;;;;;;6.85;2.92;;;;;;;;;;5068756;28;20048;-57
2023/03/17 04:46:53;;;;;;;7.45;3.28;;;;;;;;;;5070795;28;20124;-56
2023/03/17 04:49:20;;;;;;;4.78;3.17;;;;;;;;;;5069637;28;20041;-57
2023/03/17 04:51:46;;;;;;;5.88;3.67;;;;;;;;;;5067800;28;20044;-57
2023/03/17 04:54:12;;;;;;;6.43;2.85;;;;;;;;;;5071494;28;20061;-57
2023/03/17 04:56:38;;;;;;;4.47;3.00;;;;;;;;;;5070200;28;20672;-57
2023/03/17 04:59:04;;;;;;;5.80;2.90;;;;;;;;;;5069531;28;20041;-57
2023/03/17 05:01:31;;;;;;;6.13;3.05;;;;;;;;;;5071466;28;20450;-57
2023/03/17 05:03:57;;;;;;;5.20;2.97;;;;;;;;;;5067903;28;20589;-56
2023/03/17 05:06:23;;;;;;;7.93;3.50;;;;;;;;;;5045374;28;20513;-57
2023/03/17 05:08:50;;;;;;;4.75;2.67;;;;;;;;;;5066412;28;20036;-57
2023/03/17 05:11:16;;;;;;;7.85;3.33;;;;;;;;;;5068489;28;21059;-58
2023/03/17 05:13:42;;;;;;;6.15;3.60;;;;;;;;;;5067999;28;20067;-57
2023/03/17 05:16:09;;;;;;;5.00;2.80;;;;;;;;;;5068650;28;20175;-56
2023/03/17 05:18:35;;;;;;;4.47;3.45;;;;;;;;;;5067802;28;20151;-57
2023/03/17 05:21:02;;;;;;;6.63;3.22;;;;;;;;;;5071468;28;20083;-57
2023/03/17 05:23:28;;;;;;;5.78;3.05;;;;;;;;;;5066986;28;20037;-57
2023/03/17 05:25:54;;;;;;;6.95;3.13;;;;;;;;;;5067266;28;20041;-57
2023/03/17 05:28:20;;;;;;;4.05;2.60;;;;;;;;;;5043664;28;20076;-56
2023/03/17 05:30:48;;;;;;;4.97;3.17;;;;;;;;;;5069069;28;20649;-57
2023/03/17 05:33:15;;;;;;;5.15;2.92;;;;;;;;;;5070630;28;20040;-57
2023/03/17 05:35:42;;;;;;;5.38;3.40;;;;;;;;;;5073535;28;20036;-57
2023/03/17 05:38:10;;;;;;;9.88;3.63;;;;;;;;;;5073006;28;20715;-57
2023/03/17 05:40:36;;;;;;;4.35;2.50;;;;;;;;;;5073538;28;20143;-57
2023/03/17 05:43:04;;;;;;;5.85;2.53;;;;;;;;;;5070363;28;21926;-57
2023/03/17 05:45:32;;;;;;;7.10;3.42;;;;;;;;;;5069473;28;20045;-58
2023/03/17 05:47:58;;;;;;;4.57;2.80;;;;;;;;;;5072292;28;20098;-57
2023/03/17 05:50:24;;;;;;;6.20;3.00;;;;;;;;;;5074059;28;20636;-56
2023/03/17 05:52:51;;;;;;;6.90;3.13;;;;;;;;;;5070722;28;20044;-57
2023/03/17 05:55:17;;;;;;;6.03;3.38;;;;;;;;;;5072159;28;20114;-57
2023/03/17 05:57:44;;;;;;;4.50;2.50;;;;;;;;;;5068949;28;20584;-57
2023/03/17 06:00:11;;;;;;;3.75;2.38;;;;;;;;;;5070203;28;20036;-57
2023/03/17 06:02:37;;;;;;;7.22;3.08;;;;;;;;;;5067474;28;20044;-57
2023/03/17 06:05:03;;;;;;;7.20;2.63;;;;;;;;;;5071897;28;20497;-58
2023/03/17 06:07:29;;;;;;;6.65;3.47;;;;;;;;;;5050261;28;20052;-58
2023/03/17 06:09:56;;;;;;;5.63;2.80;;;;;;;;;;5072096;28;20044;-58
2023/03/17 06:12:22;;;;;;;5.13;4.20;;;;;;;;;;5064801;28;20083;-57
2023/03/17 06:14:48;;;;;;;5.57;2.95;;;;;;;;;;5069551;28;20052;-57
2023/03/17 06:17:14;;;;;;;4.53;2.72;;;;;;;;;;5069143;28;20053;-57
2023/03/17 06:19:40;;;;;;;11.77;3.55;;;;;;;;;;5071955;28;20063;-57
2023/03/17 06:22:06;;;;;;;4.80;2.60;;;;;;;;;;5072061;28;20043;-58
2023/03/17 06:24:33;;;;;;;5.43;2.63;;;;;;;;;;5068105;28;21874;-57
2023/03/17 06:27:00;;;;;;;3.88;2.00;;;;;;;;;;5072196;28;20041;-57
2023/03/17 06:29:28;;;;;;;6.20;2.63;;;;;;;;;;5073654;28;20044;-57
2023/03/17 06:31:54;;;;;;;5.47;2.75;;;;;;;;;;5075485;28;20039;-57
2023/03/17 06:34:20;;;;;;;5.47;2.25;;;;;;;;;;5072144;28;20075;-59
2023/03/17 06:36:47;;;;;;;4.20;1.92;;;;;;;;;;5046680;28;20051;-57
2023/03/17 06:39:13;;;;;;;5.28;2.20;;;;;;;;;;5068537;28;20148;-58
2023/03/17 06:41:39;;;;;;;3.10;1.73;;;;;;;;;;5074755;28;20569;-57
2023/03/17 06:44:06;;;;;;;8.10;2.33;;;;;;;;;;5072052;28;20036;-57
2023/03/17 06:46:32;;;;;;;5.10;2.45;;;;;;;;;;5070164;28;20048;-59
2023/03/17 06:48:58;;;;;;;3.92;1.73;;;;;;;;;;5070146;28;20111;-57
2023/03/17 06:51:25;;;;;;;6.65;2.42;;;;;;;;;;5065970;28;20926;-57
2023/03/17 06:53:51;;;;;;;3.88;2.70;;;;;;;;;;5051646;28;20050;-57
2023/03/17 06:56:17;;;;;;;7.90;2.83;;;;;;;;;;5069584;28;20240;-57
2023/03/17 06:58:44;;;;;;;4.93;2.55;;;;;;;;;;5070332;28;20044;-57
2023/03/17 07:01:10;;;;;;;4.35;2.10;;;;;;;;;;5069566;28;20049;-57
2023/03/17 07:03:37;;;;;;;6.13;2.70;;;;;;;;;;5067384;28;20122;-57
2023/03/17 07:06:03;;;;;;;7.22;2.35;;;;;;;;;;5067278;28;20040;-57
2023/03/17 07:08:29;;;;;;;4.18;2.42;;;;;;;;;;5069904;28;20064;-57
2023/03/17 07:10:56;;;;;;;3.40;2.28;;;;;;;;;;5065185;28;20550;-57
2023/03/17 07:13:22;;;;;;;4.82;2.33;;;;;;;;;;5070234;28;21998;-57
2023/03/17 07:15:49;;;;;;;7.03;2.88;;;;;;;;;;5052719;28;20095;-57
2023/03/17 07:18:15;;;;;;;4.85;2.05;;;;;;;;;;5068265;28;20435;-57
2023/03/17 07:20:42;;;;;;;7.20;2.58;;;;;;;;;;5068329;28;20068;-57
2023/03/17 07:23:20;;;;;;;5.40;2.20;;;;;;;;;;5062370;28;20045;-57
2023/03/17 07:25:46;;;;;;;5.68;2.00;;;;;;;;;;5063255;28;20694;-58
2023/03/17 07:28:13;;;;;;;5.15;2.15;;;;;;;;;;5046126;28;20044;-57
2023/03/17 07:30:42;;;;;;;5.85;2.35;;;;;;;;;;5072860;28;20075;-57
2023/03/17 07:33:09;;;;;;;3.85;2.00;;;;;;;;;;5067482;28;20902;-57
2023/03/17 07:35:35;;;;;;;3.45;2.05;;;;;;;;;;5064817;28;20041;-57
2023/03/17 07:38:01;;;;;;;6.03;2.13;;;;;;;;;;5064597;28;20052;-58
2023/03/17 07:40:28;;;;;;;4.57;2.03;;;;;;;;;;5037526;28;20158;-58
2023/03/17 07:42:55;;;;;;;5.35;3.30;;;;;;;;;;5066526;28;20033;-57
2023/03/17 07:45:21;;;;;;;5.70;2.58;;;;;;;;;;5070308;28;20045;-57
2023/03/17 07:47:47;;;;;;;3.17;1.83;;;;;;;;;;5070161;28;20044;-57
2023/03/17 07:50:13;;;;;;;4.85;2.10;;;;;;;;;;5073653;28;20060;-59
2023/03/17 07:52:39;;;;;;;2.53;1.60;;;;;;;;;;5054359;28;20243;-58
2023/03/17 07:55:11;;;;;;;7.78;2.80;;;;;;;;;;5073242;28;20094;-58
2023/03/17 07:57:38;;;;;;;6.65;2.58;;;;;;;;;;5072773;28;20080;-58
2023/03/17 08:00:12;;;;;;;3.47;2.20;;;;;;;;;;5072804;28;20044;-57
2023/03/17 08:02:38;;;;;;;5.32;3.25;;;;;;;;;;5072897;28;20037;-58
2023/03/17 08:05:06;;;;;;;3.15;1.88;;;;;;;;;;5050582;28;20503;-58
2023/03/17 08:07:32;;;;;;;4.65;2.58;;;;;;;;;;5073432;28;20675;-58
2023/03/17 08:09:58;;;;;;;5.00;2.40;;;;;;;;;;5075399;28;20071;-58
2023/03/17 08:12:24;;;;;;;7.28;2.10;;;;;;;;;;5074997;28;20600;-57
2023/03/17 08:14:51;;;;;;;5.22;3.40;;;;;;;;;;5073637;28;20102;-58
2023/03/17 08:17:17;;;;;;;5.88;2.28;;;;;;;;;;5056913;28;20052;-57
2023/03/17 08:19:44;;;;;;;5.85;2.92;;;;;;;;;;5074056;28;21846;-58
2023/03/17 08:22:10;;;;;;;4.68;2.17;;;;;;;;;;5074391;28;20050;-58
2023/03/17 08:24:37;;;;;;;3.47;2.35;;;;;;;;;;5074677;28;20036;-57
2023/03/17 08:27:03;;;;;;;6.57;2.55;;;;;;;;;;5048960;28;20044;-58
2023/03/17 08:29:29;;;;;;;5.05;2.17;;;;;;;;;;5074526;28;20040;-58
2023/03/17 08:31:56;;;;;;;5.15;2.15;;;;;;;;;;5072956;28;20049;-58
2023/03/17 08:34:23;;;;;;;3.33;1.98;;;;;;;;;;5073894;28;20107;-57
2023/03/17 08:36:49;;;;;;;2.90;1.75;;;;;;;;;;5072965;28;20577;-57
2023/03/17 08:39:16;;;;;;;5.55;3.22;;;;;;;;;;5075024;28;20094;-58
2023/03/17 08:41:42;;;;;;;7.45;2.45;;;;;;;;;;5070686;28;20040;-58
2023/03/17 08:44:08;;;;;;;4.65;2.22;;;;;;;;;;5066393;28;20041;-58
2023/03/17 08:46:34;;;;;;;5.43;3.95;;;;;;;;;;5070354;28;20086;-58
2023/03/17 08:49:02;;;;;;;6.53;2.10;;;;;;;;;;5066908;28;20052;-58
2023/03/17 08:51:30;;;;;;;5.32;2.42;;;;;;;;;;5068543;28;20533;-58
2023/03/17 08:53:57;;;;;;;5.38;2.08;;;;;;;;;;5066486;28;20867;-58
2023/03/17 08:56:23;;;;;;;4.32;2.25;;;;;;;;;;5067225;28;20697;-57
2023/03/17 08:58:50;;;;;;;4.00;2.00;;;;;;;;;;5067540;28;20036;-57
2023/03/17 09:01:16;;;;;;;3.47;2.42;;;;;;;;;;5073081;28;20075;-57
2023/03/17 09:03:44;;;;;;;5.90;2.80;;;;;;;;;;5072832;28;20044;-58
2023/03/17 09:06:11;;;;;;;3.50;2.00;;;;;;;;;;5073462;28;20660;-57
2023/03/17 09:08:38;;;;;;;3.63;1.98;;;;;;;;;;5075026;28;20040;-58
2023/03/17 09:11:05;;;;;;;4.72;2.03;;;;;;;;;;5048801;28;20177;-58
2023/03/17 09:13:32;;;;;;;4.68;1.90;;;;;;;;;;5047774;28;20125;-58
2023/03/17 09:15:58;;;;;;;3.58;2.10;;;;;;;;;;5050954;28;20046;-57
2023/03/17 09:18:25;;;;;;;3.20;1.92;;;;;;;;;;5053759;28;20148;-58
2023/03/17 09:20:51;;;;;;;6.28;2.92;;;;;;;;;;5056360;28;20037;-58
2023/03/17 09:23:17;;;;;;;5.75;1.90;;;;;;;;;;5055724;28;20105;-58
2023/03/17 09:25:44;;;;;;;4.35;2.10;;;;;;;;;;5054376;28;20041;-58
2023/03/17 09:28:11;;;;;;;3.50;2.35;;;;;;;;;;5052875;28;20037;-57
2023/03/17 09:30:41;;;;;;;3.80;2.42;;;;;;;;;;5056479;28;20111;-57
2023/03/17 09:33:07;;;;;;;2.75;1.85;;;;;;;;;;5054263;28;20041;-57
2023/03/17 09:35:33;;;;;;;6.20;2.40;;;;;;;;;;5054281;28;20052;-58
2023/03/17 09:37:59;;;;;;;5.05;2.15;;;;;;;;;;5053982;28;20041;-58
2023/03/17 09:40:55;;;;;;;4.30;2.60;;;;;;;;;;5054081;28;20048;-58
2023/03/17 09:43:27;;;;;;;6.35;2.15;;;;;;;;;;5041923;28;20061;-58
2023/03/17 09:45:54;;;;;;;5.30;2.30;;;;;;;;;;5053661;28;20091;-58
2023/03/17 09:48:45;;;;;;;4.78;2.55;;;;;;;;;;5055259;28;20053;-58
2023/03/17 09:51:13;;;;;;;4.68;2.33;;;;;;;;;;5034554;28;20056;-57
2023/03/17 09:53:49;;;;;;;4.22;2.08;;;;;;;;;;5055484;28;20044;-58
2023/03/17 09:56:16;;;;;;;3.63;2.13;;;;;;;;;;5056649;28;20048;-58
2023/03/17 09:58:48;;;;;;;3.85;2.30;;;;;;;;;;5055547;28;20049;-58
2023/03/17 10:01:14;;;;;;;4.55;2.60;;;;;;;;;;5053834;28;20648;-58
2023/03/17 10:03:41;;;;;;;4.18;2.65;;;;;;;;;;5054625;28;20128;-58
2023/03/17 10:06:27;;;;;;;3.72;2.47;;;;;;;;;;5054909;28;20056;-58
2023/03/17 10:09:14;;;;;;;4.68;2.65;;;;;;;;;;5048243;28;20047;-58
2023/03/17 10:11:45;;;;;;;3.97;2.13;;;;;;;;;;5063214;28;20975;-58
2023/03/17 10:14:37;;;;;;;4.13;2.13;;;;;;;;;;5049191;28;20593;-58
2023/03/17 10:17:03;;;;;;;;;;;;;;;;;;5051506;28;20057;-58
2023/03/17 10:19:45;;;;;;;4.72;2.35;;;;;;;;;;5074564;28;20372;-58
2023/03/17 10:22:11;;;;;;;4.47;2.43;;;;;;;;;;5073428;28;20048;-57
2023/03/17 10:24:39;;;;;;;5.10;2.42;;;;;;;;;;5076459;28;20048;-58
2023/03/17 10:27:08;;;;;;;6.63;2.83;;;;;;;;;;5074875;28;20052;-57
2023/03/17 10:29:34;;;;;;;9.90;2.78;;;;;;;;;;5076076;28;20167;-58
2023/03/17 10:32:00;;;;;;;6.63;2.00;;;;;;;;;;5074240;28;20048;-58
2023/03/17 10:34:28;;;;;;;5.40;2.80;;;;;;;;;;5074883;28;21790;-58
2023/03/17 10:37:04;;;;;;;3.25;2.08;;;;;;;;;;5075239;28;20322;-58
2023/03/17 10:39:30;;;;;;;5.93;2.08;;;;;;;;;;5076669;28;20041;-58
2023/03/17 10:42:07;;;;;;;6.32;2.20;;;;;;;;;;5075249;28;20041;-58
2023/03/17 10:45:03;;;;;;;5.85;3.40;;;;;;;;;;5075968;28;20136;-57
2023/03/17 10:47:33;;;;;;;5.43;2.38;;;;;;;;;;5053932;28;20155;-58
2023/03/17 10:50:19;;;;;;;3.75;1.88;;;;;;;;;;5076065;28;20051;-57
2023/03/17 10:52:46;;;;;;;4.18;2.38;;;;;;;;;;5074783;28;20041;-58
2023/03/17 10:55:14;;;;;;;4.57;1.83;;;;;;;;;;5076210;28;20548;-58
2023/03/17 10:57:49;;;;;;;6.28;1.95;;;;;;;;;;5075619;28;20072;-58
2023/03/17 11:00:18;;;;;;;5.43;2.38;;;;;;;;;;5075424;28;20610;-57
2023/03/17 11:02:52;;;;;;;6.72;2.10;;;;;;;;;;5075033;28;20079;-58
2023/03/17 11:05:22;;;;;;;3.80;1.67;;;;;;;;;;5071047;28;20062;-58
2023/03/17 11:07:48;;;;;;;4.95;2.75;;;;;;;;;;5072654;28;20522;-58
2023/03/17 11:10:22;;;;;;;4.25;1.77;;;;;;;;;;5074560;28;20493;-58
2023/03/17 11:12:49;;;;;;;4.05;2.25;;;;;;;;;;5070531;28;20091;-57
2023/03/17 11:15:17;;;;;;;6.72;2.33;;;;;;;;;;5074049;28;20088;-58
2023/03/17 11:17:57;;;;;;;4.38;1.95;;;;;;;;;;5074508;28;20040;-58
2023/03/17 11:20:42;;;;;;;6.78;2.97;;;;;;;;;;5075445;28;20562;-58
2023/03/17 11:23:14;;;;;;;6.60;2.55;;;;;;;;;;5072412;28;20416;-58
2023/03/17 11:25:40;;;;;;;;;;;;;;;;;;5076362;28;20617;-58
2023/03/17 11:28:16;;;;;;;4.82;1.88;;;;;;;;;;5073702;28;20032;-58
2023/03/17 11:30:42;;;;;;;6.88;3.00;;;;;;;;;;5074478;28;20072;-58
2023/03/17 11:33:27;;;;;;;5.15;2.80;;;;;;;;;;5073813;28;20497;-58
2023/03/17 11:35:59;;;;;;;4.35;2.47;;;;;;;;;;5075044;28;20056;-58
2023/03/17 11:38:29;;;;;;;7.05;3.22;;;;;;;;;;5074829;28;20072;-58
2023/03/17 11:40:58;;;;;;;5.80;2.42;;;;;;;;;;5075296;28;20138;-58
2023/03/17 11:43:44;;;;;;;6.35;3.00;;;;;;;;;;5073989;28;20135;-58
2023/03/17 11:46:30;;;;;;;4.50;1.98;;;;;;;;;;5074048;28;20136;-58
2023/03/17 11:49:03;;;;;;;4.78;2.22;;;;;;;;;;5075056;28;20039;-58
2023/03/17 11:51:33;;;;;;;6.45;2.17;;;;;;;;;;5071918;28;20094;-58
2023/03/17 11:54:08;;;;;;;7.32;2.58;;;;;;;;;;5074738;28;20091;-58
2023/03/17 11:56:38;;;;;;;8.13;2.42;;;;;;;;;;5074527;28;20048;-58
2023/03/17 11:59:14;;;;;;;3.58;2.03;;;;;;;;;;5071724;28;20044;-58
2023/03/17 12:01:44;;;;;;;4.20;2.55;;;;;;;;;;5073189;28;20498;-58
2023/03/17 12:04:17;;;;;;;8.15;3.03;;;;;;;;;;5073567;28;20119;-58
2023/03/17 12:06:46;;;;;;;5.57;2.53;;;;;;;;;;5071345;28;20106;-57
2023/03/17 12:09:16;;;;;;;4.60;1.85;;;;;;;;;;5073554;28;20048;-58
2023/03/17 12:11:43;;;;;;;4.53;2.00;;;;;;;;;;5070272;28;20036;-58
2023/03/17 12:14:18;;;;;;;5.30;2.25;;;;;;;;;;5073248;28;20046;-58
2023/03/17 12:16:49;;;;;;;6.07;2.58;;;;;;;;;;5071438;28;20066;-58
2023/03/17 12:19:15;;;;;;;4.90;2.15;;;;;;;;;;5074600;28;20500;-58
2023/03/17 12:21:53;;;;;;;12.00;3.95;;;;;;;;;;5072436;28;20033;-58
2023/03/17 12:24:27;;;;;;;7.00;1.98;;;;;;;;;;5074200;28;20135;-58
2023/03/17 12:26:53;;;;;;;9.00;2.50;;;;;;;;;;5074485;28;20044;-58
2023/03/17 12:29:35;;;;;;;5.15;2.28;;;;;;;;;;5069301;28;20048;-57
2023/03/17 12:32:04;;;;;;;4.70;2.40;;;;;;;;;;5073785;28;20036;-58
2023/03/17 12:34:45;;;;;;;4.75;1.90;;;;;;;;;;5073864;28;20690;-57
2023/03/17 12:37:13;;;;;;;5.53;2.20;;;;;;;;;;5074158;28;20040;-57
2023/03/17 12:39:42;;;;;;;8.68;3.03;;;;;;;;;;5072869;28;20040;-58
2023/03/17 12:42:18;;;;;;;6.07;2.72;;;;;;;;;;5073269;28;20925;-58
2023/03/17 12:45:02;;;;;;;4.07;1.92;;;;;;;;;;5073771;28;20155;-58
2023/03/17 12:47:37;;;;;;;5.60;2.17;;;;;;;;;;5072586;28;20044;-58
2023/03/17 12:50:04;;;;;;;5.25;2.42;;;;;;;;;;5071292;28;20632;-57
2023/03/17 12:52:30;;;;;;;11.38;2.63;;;;;;;;;;5072755;28;20144;-58
2023/03/17 12:55:00;;;;;;;6.70;3.78;;;;;;;;;;5074082;28;20083;-58
2023/03/17 12:57:39;;;;;;;5.47;1.92;;;;;;;;;;5054351;28;20071;-58
2023/03/17 13:00:28;;;;;;;8.43;2.35;;;;;;;;;;5069982;28;20072;-57
2023/03/17 13:03:13;;;;;;;12.55;3.38;;;;;;;;;;5074328;28;20036;-58
2023/03/17 13:05:39;;;;;;;6.47;3.03;;;;;;;;;;5072318;28;20064;-57
2023/03/17 13:08:09;;;;;;;7.97;2.55;;;;;;;;;;5072745;28;20501;-58
2023/03/17 13:10:40;;;;;;;8.30;3.08;;;;;;;;;;5073703;28;20044;-58
2023/03/17 13:13:09;;;;;;;10.45;3.33;;;;;;;;;;5072647;28;20044;-57
2023/03/17 13:15:37;;;;;;;4.47;2.70;;;;;;;;;;5073221;28;20124;-58
2023/03/17 13:18:15;;;;;;;9.00;3.00;;;;;;;;;;5071711;28;20700;-58
2023/03/17 13:20:43;;;;;;;6.38;3.08;;;;;;;;;;5048712;28;20091;-58
2023/03/17 13:23:12;;;;;;;4.47;2.35;;;;;;;;;;5070248;28;21354;-57
2023/03/17 13:25:40;;;;;;;7.10;2.70;;;;;;;;;;5067902;28;20511;-58
2023/03/17 13:28:12;;;;;;;9.63;2.70;;;;;;;;;;5070326;28;20542;-58
2023/03/17 13:30:38;;;;;;;9.20;2.85;;;;;;;;;;5073919;28;20507;-57
2023/03/17 13:33:11;;;;;;;5.57;2.60;;;;;;;;;;5070191;28;20376;-58
2023/03/17 13:35:39;;;;;;;6.90;3.00;;;;;;;;;;5074659;28;20131;-58
2023/03/17 13:38:23;;;;;;;5.88;3.42;;;;;;;;;;5071839;28;20491;-58
2023/03/17 13:41:02;;;;;;;8.18;3.25;;;;;;;;;;5073547;28;20040;-57
2023/03/17 13:43:43;;;;;;;6.90;2.53;;;;;;;;;;5073307;28;20118;-58
2023/03/17 13:46:23;;;;;;;7.53;3.73;;;;;;;;;;5072500;28;20071;-58
2023/03/17 13:48:49;;;;;;;6.22;2.35;;;;;;;;;;5072268;28;20084;-58
2023/03/17 13:51:19;;;;;;;5.00;2.33;;;;;;;;;;5072293;28;21159;-57
2023/03/17 13:53:49;;;;;;;7.38;2.92;;;;;;;;;;5047545;28;20041;-58
2023/03/17 13:56:22;;;;;;;4.70;2.55;;;;;;;;;;5059070;28;21130;-58
2023/03/17 13:58:51;;;;;;;10.20;2.95;;;;;;;;;;5073866;28;20123;-58
2023/03/17 14:01:17;;;;;;;5.97;2.80;;;;;;;;;;5076902;28;20119;-58
2023/03/17 14:03:48;;;;;;;8.52;2.55;;;;;;;;;;5074717;28;20044;-58
2023/03/17 14:06:15;;;;;;;9.60;3.20;;;;;;;;;;5077859;28;20036;-57
2023/03/17 14:08:47;;;;;;;14.25;2.85;;;;;;;;;;5074955;28;20052;-57
2023/03/17 14:11:22;;;;;;;5.80;2.65;;;;;;;;;;5076420;28;20059;-57
2023/03/17 14:14:07;;;;;;;5.75;3.25;;;;;;;;;;5051455;28;20063;-58
2023/03/17 14:16:42;;;;;;;8.50;2.88;;;;;;;;;;5076545;28;20110;-58
2023/03/17 14:19:11;;;;;;;4.35;2.42;;;;;;;;;;5076045;28;20060;-58
2023/03/17 14:21:37;;;;;;;10.52;3.08;;;;;;;;;;5075181;28;20037;-58
2023/03/17 14:24:17;;;;;;;8.15;2.75;;;;;;;;;;5075660;28;20422;-58
2023/03/17 14:26:43;;;;;;;7.00;2.90;;;;;;;;;;5076009;28;20163;-58
2023/03/17 14:29:13;;;;;;;7.38;3.85;;;;;;;;;;5056824;28;20040;-58
2023/03/17 14:31:39;;;;;;;8.85;3.30;;;;;;;;;;5073837;28;20041;-58
2023/03/17 14:34:12;;;;;;;7.40;3.50;;;;;;;;;;5076425;28;20045;-58
2023/03/17 14:36:38;;;;;;;9.43;2.95;;;;;;;;;;5075899;28;20068;-57
2023/03/17 14:39:04;;;;;;;8.10;2.95;;;;;;;;;;5055648;28;20045;-58
2023/03/17 14:41:33;;;;;;;5.45;2.70;;;;;;;;;;5075309;28;20509;-58
2023/03/17 14:43:59;;;;;;;10.25;2.65;;;;;;;;;;5055809;28;20099;-58
2023/03/17 14:46:28;;;;;;;4.90;2.58;;;;;;;;;;5073888;28;20562;-58
2023/03/17 14:48:59;;;;;;;6.30;2.60;;;;;;;;;;5072900;28;20044;-58
2023/03/17 14:51:31;;;;;;;13.18;3.88;;;;;;;;;;5075954;28;20040;-58
2023/03/17 14:53:59;;;;;;;8.43;2.55;;;;;;;;;;5073068;28;20057;-58
2023/03/17 14:56:35;;;;;;;13.52;3.20;;;;;;;;;;5076529;28;20097;-58
2023/03/17 14:59:05;;;;;;;7.43;2.55;;;;;;;;;;5072377;28;20135;-58
2023/03/17 15:01:34;;;;;;;9.32;2.70;;;;;;;;;;5074327;28;20036;-58
2023/03/17 15:04:15;;;;;;;8.43;2.72;;;;;;;;;;5074619;28;20106;-58
2023/03/17 15:06:54;;;;;;;9.35;2.97;;;;;;;;;;5056402;28;20098;-58
2023/03/17 15:09:20;;;;;;;5.93;2.75;;;;;;;;;;5074374;28;20059;-58
2023/03/17 15:11:47;;;;;;;6.22;3.08;;;;;;;;;;5072537;28;20045;-58
2023/03/17 15:14:13;;;;;;;10.20;3.72;;;;;;;;;;5074904;28;20047;-58
2023/03/17 15:16:40;;;;;;;5.13;2.67;;;;;;;;;;5074411;28;20047;-58
2023/03/17 15:19:14;;;;;;;8.80;4.15;;;;;;;;;;5073166;28;20191;-58
2023/03/17 15:21:41;;;;;;;9.23;3.33;;;;;;;;;;5073495;28;20116;-58
2023/03/17 15:24:38;;;;;;;7.55;3.00;;;;;;;;;;5073553;28;20156;-58
2023/03/17 15:27:05;;;;;;;6.97;3.38;;;;;;;;;;5052030;28;20045;-57
2023/03/17 15:29:32;;;;;;;10.13;3.17;;;;;;;;;;5073122;28;20052;-57
2023/03/17 15:32:02;;;;;;;7.18;3.20;;;;;;;;;;5075873;28;20048;-57
2023/03/17 15:34:29;;;;;;;4.20;2.63;;;;;;;;;;5075453;28;20070;-58